Time;durP1;ratioP1;P1;durP2;ratioP2;P2;SDS_P1;SDS_P2;PMS_P1;PMS_P2;Temp;Humidity;BMP_temperature;BMP_pressure;BME280_temperature;BME280_humidity;BME280_pressure;Samples;Min_cycle;Max_cycle;Signal;HPM_P1;HPM_P2
2021/12/11 00:01:36;;;;;;;8.63;5.63;;;0.20;99.90;;;;;;4864747;29;20021;-90
2021/12/11 00:04:06;;;;;;;8.73;5.95;;;0.20;99.90;;;;;;4864841;29;20036;-89
2021/12/11 00:06:45;;;;;;;10.32;6.88;;;0.20;99.90;;;;;;4873880;29;20053;-90
2021/12/11 00:09:23;;;;;;;11.45;6.10;;;0.30;99.90;;;;;;4866698;29;20224;-87
2021/12/11 00:11:55;;;;;;;10.57;6.30;;;0.30;99.90;;;;;;4867785;29;20036;-87
2021/12/11 00:14:22;;;;;;;9.50;6.28;;;0.30;99.90;;;;;;4868725;29;20025;-89
2021/12/11 00:16:49;;;;;;;10.40;6.65;;;0.30;99.90;;;;;;4867913;29;20025;-88
2021/12/11 00:19:21;;;;;;;10.48;6.22;;;0.30;99.90;;;;;;4867039;29;20037;-87
2021/12/11 00:21:48;;;;;;;11.32;7.00;;;0.30;99.90;;;;;;4884173;29;20029;-88
2021/12/11 00:24:24;;;;;;;11.40;6.20;;;0.30;99.90;;;;;;4867821;29;20144;-89
2021/12/11 00:26:56;;;;;;;9.15;6.20;;;0.20;99.90;;;;;;4867867;29;20021;-90
2021/12/11 00:29:25;;;;;;;9.88;6.20;;;0.20;99.90;;;;;;4885147;29;20029;-89
2021/12/11 00:32:04;;;;;;;9.75;6.45;;;0.20;99.90;;;;;;4868550;29;20029;-91
2021/12/11 00:34:30;;;;;;;10.32;6.47;;;0.20;99.90;;;;;;4870801;29;20039;-88
2021/12/11 00:37:07;;;;;;;10.88;7.15;;;0.20;99.90;;;;;;4887735;29;20074;-89
2021/12/11 00:39:42;;;;;;;9.07;6.30;;;0.20;99.90;;;;;;4868241;29;20091;-90
2021/12/11 00:42:09;;;;;;;9.52;6.60;;;0.10;99.90;;;;;;4890090;29;20088;-88
2021/12/11 00:44:38;;;;;;;9.18;6.65;;;0.10;99.90;;;;;;4867508;29;20116;-91
2021/12/11 00:47:10;;;;;;;12.25;7.00;;;0.10;99.90;;;;;;4866037;29;20112;-89
2021/12/11 00:49:43;;;;;;;9.98;6.38;;;0.10;99.90;;;;;;4866696;29;20033;-87
2021/12/11 00:52:08;;;;;;;10.05;6.32;;;0.10;99.90;;;;;;4866479;29;20499;-90
2021/12/11 00:54:41;;;;;;;11.68;6.53;;;0.10;99.90;;;;;;4881996;29;20024;-91
2021/12/11 00:57:13;;;;;;;9.20;6.63;;;0.10;99.90;;;;;;4894529;29;20045;-87
2021/12/11 00:59:39;;;;;;;10.73;6.75;;;0.10;99.90;;;;;;4865619;29;20484;-87
2021/12/11 01:02:07;;;;;;;10.40;6.63;;;0.10;99.90;;;;;;4865459;29;20054;-89
2021/12/11 01:04:41;;;;;;;11.18;6.85;;;0.10;99.90;;;;;;4865090;29;20029;-89
2021/12/11 01:07:19;;;;;;;9.93;6.57;;;0.00;99.90;;;;;;4865611;29;20031;-89
2021/12/11 01:09:54;;;;;;;10.10;6.78;;;0.00;99.90;;;;;;4865678;29;20021;-91
2021/12/11 01:12:41;;;;;;;11.07;6.38;;;0.00;99.90;;;;;;4891595;29;20119;-92
2021/12/11 01:15:13;;;;;;;11.43;7.13;;;0.00;99.90;;;;;;4866319;29;20483;-91
2021/12/11 01:20:51;;;;;;;9.52;6.68;;;0.00;99.90;;;;;;4859622;29;20516;-89
2021/12/11 01:23:34;;;;;;;10.23;7.18;;;0.00;99.90;;;;;;4865721;29;20492;-87
2021/12/11 01:26:06;;;;;;;10.13;7.18;;;0.10;99.90;;;;;;4882371;29;20032;-88
2021/12/11 01:28:33;;;;;;;11.55;7.22;;;0.00;99.90;;;;;;4882376;29;20116;-87
2021/12/11 01:31:01;;;;;;;11.50;7.05;;;0.00;99.90;;;;;;4881034;29;20037;-87
2021/12/11 01:33:27;;;;;;;11.27;7.80;;;0.00;99.90;;;;;;4881810;29;20040;-88
2021/12/11 01:35:53;;;;;;;11.85;7.97;;;0.00;99.90;;;;;;4866064;29;20361;-89
2021/12/11 01:38:28;;;;;;;10.77;7.65;;;0.00;99.90;;;;;;4865528;29;20037;-89
2021/12/11 01:40:58;;;;;;;10.93;7.00;;;0.10;99.90;;;;;;4882280;29;20120;-89
2021/12/11 01:43:30;;;;;;;12.80;8.10;;;0.10;99.90;;;;;;4850852;29;20066;-86
2021/12/11 01:45:59;;;;;;;9.87;6.70;;;0.10;99.90;;;;;;4866474;29;20029;-87
2021/12/11 01:48:37;;;;;;;10.77;7.15;;;0.10;99.90;;;;;;4882883;29;20100;-89
2021/12/11 01:51:23;;;;;;;12.38;7.45;;;0.20;99.90;;;;;;4865258;29;20077;-88
2021/12/11 01:53:56;;;;;;;10.18;6.47;;;0.20;99.90;;;;;;4864692;29;20487;-87
2021/12/11 01:56:24;;;;;;;8.25;5.10;;;0.20;99.90;;;;;;4865278;29;20036;-89
2021/12/11 01:59:04;;;;;;;10.05;6.70;;;0.20;99.90;;;;;;4868869;29;20033;-89
2021/12/11 02:01:36;;;;;;;12.30;7.00;;;0.20;99.90;;;;;;4872277;29;20043;-89
2021/12/11 02:04:04;;;;;;;11.70;6.85;;;0.20;99.90;;;;;;4870234;29;20040;-89
2021/12/11 02:06:37;;;;;;;10.95;7.50;;;0.10;99.90;;;;;;4870265;29;20025;-87
2021/12/11 02:09:26;;;;;;;11.63;7.38;;;0.10;99.90;;;;;;4886784;29;20037;-90
2021/12/11 02:12:04;;;;;;;10.43;6.68;;;0.20;99.90;;;;;;4869784;29;20040;-89
2021/12/11 02:14:37;;;;;;;10.48;6.93;;;0.20;99.90;;;;;;4870543;29;20025;-87
2021/12/11 02:17:03;;;;;;;11.70;7.22;;;0.20;99.90;;;;;;4870195;29;20040;-89
2021/12/11 02:19:36;;;;;;;10.90;7.03;;;0.10;99.90;;;;;;4870510;29;20040;-88
2021/12/11 02:22:02;;;;;;;12.13;7.20;;;0.20;99.90;;;;;;4870583;29;20092;-87
2021/12/11 02:24:38;;;;;;;11.02;7.40;;;0.10;99.90;;;;;;4876523;29;20037;-87
2021/12/11 02:27:11;;;;;;;11.40;7.72;;;0.10;99.90;;;;;;4897722;29;20073;-87
2021/12/11 02:30:12;;;;;;;11.98;7.85;;;0.10;99.90;;;;;;4893154;29;20033;-86
2021/12/11 02:32:42;;;;;;;11.95;8.30;;;0.10;99.90;;;;;;4887518;29;20010;-86
2021/12/11 02:35:23;;;;;;;12.57;7.57;;;0.10;99.90;;;;;;4903321;29;20048;-88
2021/12/11 02:38:23;;;;;;;12.48;7.47;;;0.10;99.90;;;;;;4890593;29;20089;-88
2021/12/11 02:41:19;;;;;;;14.50;8.35;;;0.10;99.90;;;;;;4905754;29;20021;-88
2021/12/11 02:44:05;;;;;;;11.95;7.78;;;0.00;99.90;;;;;;4890870;29;20033;-90
2021/12/11 02:46:40;;;;;;;11.45;7.60;;;0.00;99.90;;;;;;4890833;29;20084;-91
2021/12/11 02:49:12;;;;;;;12.00;7.53;;;0.00;99.90;;;;;;4890347;29;20084;-87
2021/12/11 02:51:45;;;;;;;14.43;8.02;;;0.00;99.90;;;;;;4890606;29;20005;-87
2021/12/11 02:54:16;;;;;;;10.75;8.05;;;0.00;99.90;;;;;;4889571;29;20025;-87
2021/12/11 02:56:52;;;;;;;11.23;7.78;;;0.00;99.90;;;;;;4889762;29;20035;-89
2021/12/11 02:59:23;;;;;;;11.60;7.75;;;-0.10;99.90;;;;;;4888209;29;20064;-88
2021/12/11 03:02:20;;;;;;;11.73;7.68;;;-0.10;99.90;;;;;;4887408;29;20111;-91
2021/12/11 03:04:51;;;;;;;12.57;8.45;;;-0.10;99.90;;;;;;4867525;29;20049;-86
2021/12/11 03:07:43;;;;;;;12.57;8.32;;;-0.10;99.90;;;;;;4872498;29;20430;-90
2021/12/11 03:10:12;;;;;;;11.85;7.60;;;-0.10;99.90;;;;;;4871510;29;20123;-89
2021/12/11 03:12:39;;;;;;;12.60;7.78;;;-0.20;99.90;;;;;;4872179;29;20029;-86
2021/12/11 03:15:08;;;;;;;11.27;7.55;;;-0.20;99.90;;;;;;4869153;29;20345;-88
2021/12/11 03:17:34;;;;;;;10.95;7.22;;;-0.20;99.90;;;;;;4868421;29;20044;-87
2021/12/11 03:20:00;;;;;;;11.40;7.63;;;-0.20;99.90;;;;;;4868153;29;20045;-89
2021/12/11 03:22:30;;;;;;;13.65;8.40;;;-0.20;99.90;;;;;;4868003;29;20048;-89
2021/12/11 03:25:00;;;;;;;13.40;8.50;;;-0.20;99.90;;;;;;4884597;29;20112;-88
2021/12/11 03:27:26;;;;;;;12.00;7.68;;;-0.10;99.90;;;;;;4869174;29;20045;-87
2021/12/11 03:29:52;;;;;;;13.10;8.32;;;-0.10;99.90;;;;;;4869730;29;20115;-86
2021/12/11 03:32:18;;;;;;;12.35;7.68;;;0.00;99.90;;;;;;4868951;29;20068;-87
2021/12/11 03:34:47;;;;;;;11.88;7.75;;;0.00;99.90;;;;;;4885651;29;20037;-89
2021/12/11 03:37:15;;;;;;;12.55;8.10;;;0.10;99.90;;;;;;4869118;29;20056;-89
2021/12/11 03:39:45;;;;;;;13.32;8.85;;;0.10;99.90;;;;;;4882914;29;20029;-85
2021/12/11 03:42:15;;;;;;;11.38;7.82;;;0.10;99.90;;;;;;4866399;29;20030;-88
2021/12/11 03:44:43;;;;;;;12.75;8.00;;;0.10;99.90;;;;;;4884310;29;20029;-88
2021/12/11 03:47:15;;;;;;;14.10;8.45;;;0.10;99.90;;;;;;4867382;29;20028;-89
2021/12/11 03:49:42;;;;;;;13.30;8.00;;;0.10;99.90;;;;;;4867340;29;20025;-87
2021/12/11 03:52:10;;;;;;;13.88;8.95;;;0.10;99.90;;;;;;4885249;29;20464;-86
2021/12/11 03:54:38;;;;;;;13.13;9.05;;;0.10;99.90;;;;;;4868821;29;20488;-84
2021/12/11 03:57:06;;;;;;;16.13;10.07;;;0.10;99.90;;;;;;4873301;29;20025;-86
2021/12/11 03:59:34;;;;;;;13.68;9.57;;;0.10;99.90;;;;;;4876306;29;20048;-87
2021/12/11 04:02:05;;;;;;;17.95;10.82;;;0.00;99.90;;;;;;4869664;29;20165;-88
2021/12/11 04:04:45;;;;;;;15.43;10.23;;;0.00;99.90;;;;;;4868727;29;20032;-88
2021/12/11 04:07:17;;;;;;;16.25;10.38;;;0.00;99.90;;;;;;4869032;29;20021;-89
2021/12/11 04:09:44;;;;;;;14.90;10.15;;;-0.10;99.90;;;;;;4885934;29;20108;-87
2021/12/11 04:12:10;;;;;;;14.50;9.75;;;-0.20;99.90;;;;;;4885335;29;20021;-87
2021/12/11 04:14:40;;;;;;;13.30;8.95;;;-0.20;99.90;;;;;;4869883;29;20054;-87
2021/12/11 04:17:08;;;;;;;14.25;8.88;;;-0.30;99.90;;;;;;4866906;29;20028;-89
2021/12/11 04:19:34;;;;;;;14.40;8.68;;;-0.30;99.90;;;;;;4871487;29;20348;-87
2021/12/11 04:22:00;;;;;;;13.30;8.93;;;-0.30;99.90;;;;;;4874382;29;20025;-86
2021/12/11 04:24:29;;;;;;;14.13;9.63;;;-0.30;99.90;;;;;;4875818;29;20029;-86
2021/12/11 04:26:57;;;;;;;14.95;9.10;;;-0.30;99.90;;;;;;4875200;29;20062;-87
2021/12/11 04:29:23;;;;;;;13.35;8.75;;;-0.30;99.90;;;;;;4870448;29;20021;-90
2021/12/11 04:31:51;;;;;;;13.85;8.80;;;-0.20;99.90;;;;;;4867892;29;20111;-89
2021/12/11 04:34:19;;;;;;;12.55;8.52;;;-0.20;99.90;;;;;;4868147;29;20315;-89
2021/12/11 04:37:09;;;;;;;13.18;9.15;;;-0.10;99.90;;;;;;4868896;29;20028;-90
2021/12/11 04:39:37;;;;;;;13.20;8.90;;;-0.10;99.90;;;;;;4869162;29;20579;-89
2021/12/11 04:42:16;;;;;;;13.40;9.48;;;0.00;99.90;;;;;;4867697;29;20031;-88
2021/12/11 04:44:46;;;;;;;13.27;8.75;;;0.10;99.90;;;;;;4867833;29;20029;-87
2021/12/11 04:47:31;;;;;;;13.40;9.25;;;0.10;99.90;;;;;;4866602;29;20032;-87
2021/12/11 04:50:04;;;;;;;12.77;8.75;;;0.20;99.90;;;;;;4871447;29;20024;-87
2021/12/11 04:52:42;;;;;;;13.90;8.90;;;0.20;99.90;;;;;;4867445;29;20480;-88
2021/12/11 04:58:07;;;;;;;13.95;9.45;;;0.30;99.90;;;;;;4882239;29;20119;-89
2021/12/11 05:03:50;;;;;;;13.65;9.52;;;0.50;99.90;;;;;;4881002;29;20033;-87
2021/12/11 05:12:08;;;;;;;12.88;8.85;;;0.60;99.90;;;;;;4882385;29;20073;-88
2021/12/11 05:14:23;;;;;;;12.38;8.70;;;0.70;99.90;;;;;;4878601;29;20421;-89
2021/12/11 05:16:49;;;;;;;15.70;8.75;;;0.70;99.90;;;;;;4865704;29;20025;-90
2021/12/11 05:19:15;;;;;;;16.52;9.90;;;0.80;99.90;;;;;;4880982;29;20400;-89
2021/12/11 05:21:41;;;;;;;15.23;9.63;;;0.80;99.90;;;;;;4865692;29;20021;-88
2021/12/11 05:24:09;;;;;;;17.05;10.85;;;0.90;99.90;;;;;;4881921;29;20093;-89
2021/12/11 05:26:36;;;;;;;17.63;10.88;;;0.90;99.90;;;;;;4865115;29;20029;-88
2021/12/11 05:29:03;;;;;;;20.83;11.50;;;0.90;99.90;;;;;;4865251;29;20393;-87
2021/12/11 05:31:29;;;;;;;19.75;12.38;;;1.00;99.90;;;;;;4864971;29;20029;-88
2021/12/11 05:33:55;;;;;;;23.08;13.63;;;1.00;99.90;;;;;;4866444;29;20039;-88
2021/12/11 05:36:21;;;;;;;24.67;13.88;;;1.00;99.90;;;;;;4865618;29;20112;-90
2021/12/11 05:38:49;;;;;;;19.42;12.23;;;1.00;99.90;;;;;;4865559;29;20116;-88
2021/12/11 05:41:18;;;;;;;20.20;11.88;;;1.00;99.90;;;;;;4868796;29;20124;-88
2021/12/11 05:43:45;;;;;;;20.55;11.25;;;1.00;99.90;;;;;;4866443;29;20025;-88
2021/12/11 05:46:14;;;;;;;19.73;12.35;;;1.00;99.90;;;;;;4865851;29;20041;-88
2021/12/11 05:48:42;;;;;;;19.40;11.40;;;1.00;99.90;;;;;;4865098;29;20057;-87
2021/12/11 05:51:13;;;;;;;17.83;11.90;;;1.10;99.90;;;;;;4865734;29;20180;-87
2021/12/11 05:53:40;;;;;;;16.92;10.82;;;1.10;99.90;;;;;;4866579;29;20025;-87
2021/12/11 05:56:11;;;;;;;17.33;10.52;;;1.10;99.90;;;;;;4866480;29;20033;-87
2021/12/11 05:58:56;;;;;;;16.83;10.73;;;1.10;99.90;;;;;;4866132;29;20044;-89
2021/12/11 06:01:42;;;;;;;13.85;9.18;;;1.20;99.90;;;;;;4847604;29;20472;-88
2021/12/11 06:04:14;;;;;;;14.80;9.65;;;1.20;99.90;;;;;;4848262;29;20408;-87
2021/12/11 06:06:40;;;;;;;15.67;9.70;;;1.20;99.90;;;;;;4848603;29;20026;-88
2021/12/11 06:09:09;;;;;;;14.90;9.50;;;1.20;99.90;;;;;;4876491;29;20097;-88
2021/12/11 06:11:35;;;;;;;16.65;9.90;;;1.20;99.90;;;;;;4867165;29;20471;-88
2021/12/11 06:14:02;;;;;;;14.77;9.23;;;1.30;99.90;;;;;;4867545;29;20025;-88
2021/12/11 06:16:28;;;;;;;14.00;9.38;;;1.30;99.90;;;;;;4867842;29;20028;-89
2021/12/11 06:18:54;;;;;;;17.70;10.50;;;1.30;99.90;;;;;;4868553;29;20037;-86
2021/12/11 06:21:20;;;;;;;15.02;9.07;;;1.30;99.90;;;;;;4866327;29;20138;-86
2021/12/11 06:23:46;;;;;;;19.20;11.23;;;1.40;99.90;;;;;;4865645;29;20052;-86
2021/12/11 06:26:12;;;;;;;17.85;10.48;;;1.40;99.90;;;;;;4864725;29;20044;-87
2021/12/11 06:28:39;;;;;;;16.30;10.27;;;1.40;99.90;;;;;;4862674;29;20078;-89
2021/12/11 06:31:05;;;;;;;15.52;10.30;;;1.40;99.90;;;;;;4864488;29;20033;-89
2021/12/11 06:33:33;;;;;;;16.17;9.75;;;1.40;99.90;;;;;;4863817;29;20131;-88
2021/12/11 06:36:06;;;;;;;16.08;9.90;;;1.40;99.90;;;;;;4864167;29;20033;-88
2021/12/11 06:38:35;;;;;;;16.17;9.95;;;1.40;99.90;;;;;;4864211;29;20044;-88
2021/12/11 06:41:02;;;;;;;15.82;9.57;;;1.40;99.90;;;;;;4864082;29;20025;-88
2021/12/11 06:43:28;;;;;;;16.15;9.63;;;1.40;99.90;;;;;;4864526;29;20025;-88
2021/12/11 06:45:55;;;;;;;17.95;9.88;;;1.40;99.90;;;;;;4882996;29;20044;-90
2021/12/11 06:48:22;;;;;;;18.80;10.23;;;1.50;99.90;;;;;;4868397;29;20021;-90
2021/12/11 06:50:48;;;;;;;15.68;11.05;;;1.50;99.90;;;;;;4868020;29;20029;-88
2021/12/11 06:53:21;;;;;;;18.80;10.70;;;1.50;99.90;;;;;;4867355;29;20032;-88
2021/12/11 06:55:47;;;;;;;15.43;9.90;;;1.50;99.90;;;;;;4875444;29;20037;-89
2021/12/11 06:58:12;;;;;;;19.23;10.80;;;1.50;99.90;;;;;;4873265;29;20502;-88
2021/12/11 07:00:38;;;;;;;18.30;10.57;;;1.50;99.90;;;;;;4869120;29;20023;-88
2021/12/11 07:03:04;;;;;;;16.95;10.00;;;1.60;99.90;;;;;;4870144;29;20077;-88
2021/12/11 07:05:30;;;;;;;15.70;10.10;;;1.50;99.90;;;;;;4875686;29;20056;-86
2021/12/11 07:07:58;;;;;;;15.93;9.98;;;1.60;99.90;;;;;;4871796;29;20037;-88
2021/12/11 07:10:24;;;;;;;15.95;10.10;;;1.60;99.90;;;;;;4868690;29;20041;-87
2021/12/11 07:12:50;;;;;;;16.00;10.15;;;1.60;99.90;;;;;;4867097;29;20069;-88
2021/12/11 07:15:17;;;;;;;16.70;10.18;;;1.70;99.90;;;;;;4867732;29;20029;-86
2021/12/11 07:17:42;;;;;;;16.80;10.45;;;1.70;99.90;;;;;;4867336;29;20032;-87
2021/12/11 07:20:11;;;;;;;18.30;10.70;;;1.70;99.90;;;;;;4867279;29;20097;-87
2021/12/11 07:22:40;;;;;;;15.70;10.25;;;1.70;99.90;;;;;;4867386;29;20029;-87
2021/12/11 07:25:18;;;;;;;17.80;10.73;;;1.70;99.90;;;;;;4883440;29;20077;-87
2021/12/11 07:27:45;;;;;;;18.33;12.13;;;1.70;99.90;;;;;;4866147;29;20423;-87
2021/12/11 07:30:12;;;;;;;20.70;11.48;;;1.80;99.90;;;;;;4865315;29;20029;-84
2021/12/11 07:32:38;;;;;;;25.10;15.02;;;1.80;99.90;;;;;;4869601;29;20120;-85
2021/12/11 07:35:05;;;;;;;23.02;13.55;;;1.80;99.90;;;;;;4868566;29;20556;-87
2021/12/11 07:37:31;;;;;;;20.08;12.82;;;1.80;99.90;;;;;;4866113;29;20057;-87
2021/12/11 07:39:56;;;;;;;22.35;13.60;;;1.80;99.90;;;;;;4865037;29;20154;-86
2021/12/11 07:42:22;;;;;;;21.67;13.40;;;1.90;99.90;;;;;;4864698;29;20451;-88
2021/12/11 07:44:48;;;;;;;23.67;13.43;;;1.90;99.90;;;;;;4881538;29;20122;-87
2021/12/11 07:47:13;;;;;;;20.02;12.15;;;1.90;99.90;;;;;;4865406;29;20025;-87
2021/12/11 07:49:39;;;;;;;20.55;11.82;;;1.90;99.90;;;;;;4865845;29;20475;-88
2021/12/11 07:52:05;;;;;;;20.95;12.93;;;1.90;99.90;;;;;;4865954;29;20029;-87
2021/12/11 07:54:31;;;;;;;18.77;11.88;;;1.90;99.90;;;;;;4864920;29;20025;-87
2021/12/11 07:56:58;;;;;;;19.27;11.43;;;1.90;99.90;;;;;;4865510;29;20415;-87
2021/12/11 07:59:24;;;;;;;18.77;11.88;;;1.90;99.90;;;;;;4865575;29;20044;-88
2021/12/11 08:01:52;;;;;;;25.58;15.32;;;1.90;99.90;;;;;;4866340;29;20117;-88
2021/12/11 08:04:20;;;;;;;32.45;18.38;;;1.90;99.90;;;;;;4866454;29;20501;-90
2021/12/11 08:06:46;;;;;;;26.65;16.40;;;1.90;99.90;;;;;;4866071;29;20021;-88
2021/12/11 08:09:16;;;;;;;27.02;15.70;;;1.90;99.90;;;;;;4881636;29;20036;-85
2021/12/11 08:11:42;;;;;;;27.45;16.20;;;1.90;99.90;;;;;;4865455;29;20392;-86
2021/12/11 08:14:08;;;;;;;24.90;13.82;;;1.90;99.90;;;;;;4865735;29;20025;-87
2021/12/11 08:16:44;;;;;;;24.27;14.10;;;2.00;99.90;;;;;;4866757;29;20029;-89
2021/12/11 08:19:11;;;;;;;25.92;14.57;;;2.00;99.90;;;;;;4866889;29;20476;-87
2021/12/11 08:21:37;;;;;;;28.58;15.48;;;2.00;99.90;;;;;;4866830;29;20028;-88
2021/12/11 08:24:05;;;;;;;25.17;13.93;;;2.00;99.90;;;;;;4866573;29;20032;-89
2021/12/11 08:26:34;;;;;;;23.60;14.48;;;2.00;99.90;;;;;;4866177;29;20062;-88
2021/12/11 08:29:00;;;;;;;22.20;13.20;;;2.10;99.90;;;;;;4865367;29;20053;-87
2021/12/11 08:31:27;;;;;;;19.88;12.25;;;2.10;99.90;;;;;;4866565;29;20021;-88
2021/12/11 08:33:54;;;;;;;34.05;19.52;;;2.10;99.90;;;;;;4866437;29;20047;-86
2021/12/11 08:36:24;;;;;;;28.95;16.73;;;2.10;99.90;;;;;;4867748;29;20029;-88
2021/12/11 08:38:51;;;;;;;28.13;16.17;;;2.10;99.90;;;;;;4868372;29;20041;-88
2021/12/11 08:41:22;;;;;;;25.73;15.27;;;2.10;99.90;;;;;;4868104;29;20044;-89
2021/12/11 08:43:56;;;;;;;24.27;14.85;;;2.20;99.90;;;;;;4867569;29;20067;-89
2021/12/11 08:46:28;;;;;;;25.23;14.25;;;2.20;99.90;;;;;;4868040;29;20032;-87
2021/12/11 08:48:57;;;;;;;26.48;14.05;;;2.20;99.90;;;;;;4866934;29;20029;-88
2021/12/11 08:51:36;;;;;;;23.83;14.18;;;2.20;99.90;;;;;;4866974;29;20020;-89
2021/12/11 08:54:03;;;;;;;30.00;16.10;;;2.30;99.90;;;;;;4867029;29;20027;-87
2021/12/11 08:56:28;;;;;;;29.13;16.02;;;2.30;99.90;;;;;;4866799;29;20040;-88
2021/12/11 08:58:56;;;;;;;25.60;14.50;;;2.30;99.90;;;;;;4867161;29;20403;-87
2021/12/11 09:01:41;;;;;;;25.50;14.63;;;2.40;99.90;;;;;;4866586;29;20052;-87
2021/12/11 09:04:33;;;;;;;28.27;15.50;;;2.50;99.90;;;;;;4866288;29;20037;-88
2021/12/11 09:07:25;;;;;;;25.20;14.80;;;2.50;99.90;;;;;;4831995;29;20084;-88
2021/12/11 09:09:57;;;;;;;24.75;14.55;;;2.50;99.90;;;;;;4865633;29;20021;-90
2021/12/11 09:12:52;;;;;;;27.52;15.95;;;2.50;99.90;;;;;;4865345;29;20025;-90
2021/12/11 09:15:24;;;;;;;30.42;17.45;;;2.60;99.90;;;;;;4849857;29;20059;-90
2021/12/11 09:17:58;;;;;;;30.83;18.80;;;2.70;99.90;;;;;;4864998;29;20029;-90
2021/12/11 09:20:42;;;;;;;30.13;18.92;;;2.70;99.90;;;;;;4864983;29;20585;-89
2021/12/11 09:23:32;;;;;;;32.97;19.02;;;2.70;99.90;;;;;;4864680;29;20029;-89
2021/12/11 09:26:11;;;;;;;26.58;15.82;;;3.10;99.90;;;;;;4851867;29;20021;-88
2021/12/11 09:28:54;;;;;;;30.65;18.52;;;3.40;99.90;;;;;;4865087;29;20130;-88
2021/12/11 09:31:56;;;;;;;30.45;18.38;;;3.60;99.90;;;;;;4865489;29;20173;-90
2021/12/11 09:34:27;;;;;;;27.30;16.98;;;3.80;99.90;;;;;;4871876;29;20045;-87
2021/12/11 09:36:58;;;;;;;26.10;15.73;;;3.90;99.90;;;;;;4867307;29;20021;-87
2021/12/11 09:39:31;;;;;;;26.55;16.80;;;3.80;99.90;;;;;;4867109;29;20052;-89
2021/12/11 09:41:56;;;;;;;24.00;15.18;;;3.70;99.90;;;;;;4867347;29;20025;-87
2021/12/11 09:44:30;;;;;;;24.20;15.95;;;3.60;99.90;;;;;;4864483;29;20376;-87
2021/12/11 09:47:14;;;;;;;25.40;14.95;;;3.60;99.90;;;;;;4880740;29;20029;-87
2021/12/11 09:49:45;;;;;;;24.45;14.98;;;3.50;99.90;;;;;;4865375;29;20029;-88
2021/12/11 09:52:23;;;;;;;29.50;17.50;;;3.40;99.90;;;;;;4864765;29;20025;-88
2021/12/11 09:54:53;;;;;;;30.60;18.33;;;3.40;99.90;;;;;;4863696;29;20036;-87
2021/12/11 09:57:23;;;;;;;27.58;17.05;;;3.40;99.90;;;;;;4862973;29;20058;-87
2021/12/11 09:59:51;;;;;;;29.85;16.67;;;3.40;99.90;;;;;;4866801;29;20037;-88
2021/12/11 10:02:22;;;;;;;29.92;17.65;;;3.40;99.90;;;;;;4864391;29;20116;-90
2021/12/11 10:04:59;;;;;;;24.15;15.70;;;3.40;99.90;;;;;;4864042;29;20089;-89
2021/12/11 10:07:38;;;;;;;29.48;16.33;;;3.30;99.90;;;;;;4877133;29;20020;-89
2021/12/11 10:10:24;;;;;;;24.27;15.55;;;3.30;99.90;;;;;;4878943;29;20468;-88
2021/12/11 10:12:56;;;;;;;28.10;15.95;;;3.40;99.90;;;;;;4871840;29;20534;-90
2021/12/11 10:15:29;;;;;;;24.95;15.05;;;3.50;99.90;;;;;;4865184;29;20021;-90
2021/12/11 10:18:07;;;;;;;;;;;3.50;99.90;;;;;;4881971;29;20021;-90
2021/12/11 10:20:38;;;;;;;23.90;14.35;;;3.50;99.90;;;;;;4873526;29;19915;-88
2021/12/11 10:23:09;;;;;;;27.67;14.90;;;3.60;99.90;;;;;;4869612;29;20029;-89
2021/12/11 10:25:38;;;;;;;28.95;17.05;;;3.60;99.90;;;;;;4869301;29;20041;-89
2021/12/11 10:28:13;;;;;;;26.45;15.70;;;3.70;99.90;;;;;;4884659;29;20136;-88
2021/12/11 10:30:44;;;;;;;26.02;15.55;;;3.70;99.90;;;;;;4874483;29;20104;-90
2021/12/11 10:33:13;;;;;;;29.85;16.92;;;3.80;99.90;;;;;;4869136;29;20120;-89
2021/12/11 10:35:41;;;;;;;28.73;16.38;;;3.80;99.90;;;;;;4880654;29;20119;-88
2021/12/11 10:38:07;;;;;;;32.28;17.95;;;3.80;99.90;;;;;;4866844;29;20028;-91
2021/12/11 10:40:37;;;;;;;29.17;17.45;;;3.80;99.90;;;;;;4870136;29;20037;-91
2021/12/11 10:43:20;;;;;;;31.20;17.38;;;3.80;99.90;;;;;;4854780;29;20025;-89
2021/12/11 10:45:48;;;;;;;43.42;22.38;;;3.90;99.90;;;;;;4883556;29;20025;-89
2021/12/11 10:48:19;;;;;;;37.05;20.58;;;3.80;99.90;;;;;;4892139;29;20119;-90
2021/12/11 10:50:50;;;;;;;46.03;23.23;;;3.80;99.90;;;;;;4873993;29;20808;-90
2021/12/11 10:53:19;;;;;;;40.67;22.25;;;3.80;99.90;;;;;;4869679;29;20056;-89
2021/12/11 10:55:46;;;;;;;39.05;21.83;;;3.80;99.90;;;;;;4869746;29;20029;-89
2021/12/11 10:58:21;;;;;;;39.92;22.70;;;3.80;99.90;;;;;;4874614;29;20044;-89
2021/12/11 11:01:21;;;;;;;37.95;21.20;;;3.90;99.90;;;;;;4871731;29;20027;-91
2021/12/11 11:03:53;;;;;;;42.58;21.27;;;3.90;99.90;;;;;;4887651;29;20021;-87
2021/12/11 11:06:19;;;;;;;43.13;21.05;;;3.90;99.90;;;;;;4884601;29;20037;-88
2021/12/11 11:08:46;;;;;;;40.35;21.48;;;3.80;99.90;;;;;;4886886;29;20037;-87
2021/12/11 11:11:16;;;;;;;45.30;22.63;;;3.80;99.90;;;;;;4886080;29;20015;-87
2021/12/11 11:13:42;;;;;;;38.47;19.85;;;3.90;99.90;;;;;;4889092;29;20012;-90
2021/12/11 11:16:08;;;;;;;37.22;18.92;;;3.90;99.90;;;;;;4888150;29;20076;-89
2021/12/11 11:18:35;;;;;;;43.70;22.15;;;4.00;99.90;;;;;;4889570;29;20033;-90
2021/12/11 11:21:12;;;;;;;35.85;19.25;;;4.00;99.90;;;;;;4890107;29;20037;-90
2021/12/11 11:23:40;;;;;;;39.35;21.10;;;4.10;99.90;;;;;;4889420;29;20017;-90
2021/12/11 11:26:14;;;;;;;37.25;20.92;;;4.10;99.90;;;;;;4888972;29;20013;-90
2021/12/11 11:28:40;;;;;;;35.83;19.70;;;4.10;99.90;;;;;;4886922;29;20045;-89
2021/12/11 11:31:28;;;;;;;33.10;18.83;;;4.20;99.90;;;;;;4886318;29;20009;-90
2021/12/11 11:33:54;;;;;;;40.10;21.35;;;4.20;99.90;;;;;;4886306;29;20055;-88
2021/12/11 11:36:23;;;;;;;39.65;21.05;;;4.20;99.90;;;;;;4886689;29;20048;-89
2021/12/11 11:38:56;;;;;;;43.13;21.75;;;4.20;99.90;;;;;;4879223;29;20041;-90
2021/12/11 11:41:29;;;;;;;54.80;24.35;;;4.30;99.90;;;;;;4870953;29;20041;-91
2021/12/11 11:43:57;;;;;;;45.63;22.88;;;4.30;99.90;;;;;;4870239;29;20029;-90
2021/12/11 11:46:24;;;;;;;45.38;24.45;;;4.20;99.90;;;;;;4869487;29;20025;-89
2021/12/11 11:48:55;;;;;;;52.55;25.20;;;4.20;99.90;;;;;;4869012;29;20021;-89
2021/12/11 11:51:37;;;;;;;43.58;22.33;;;4.10;99.90;;;;;;4868037;29;20051;-89
2021/12/11 11:54:05;;;;;;;35.13;19.98;;;4.10;99.90;;;;;;4867495;29;20061;-89
2021/12/11 11:56:36;;;;;;;36.90;18.70;;;4.10;99.90;;;;;;4868370;29;20025;-91
2021/12/11 11:59:04;;;;;;;35.00;18.48;;;4.20;99.90;;;;;;4869531;29;20064;-91
2021/12/11 12:01:37;;;;;;;31.85;17.50;;;4.20;99.90;;;;;;4870117;29;20511;-90
2021/12/11 12:04:03;;;;;;;36.78;17.35;;;4.20;99.90;;;;;;4853311;29;20064;-91
2021/12/11 12:06:33;;;;;;;41.95;19.15;;;4.30;99.90;;;;;;4866635;29;20112;-90
2021/12/11 12:09:06;;;;;;;52.75;23.17;;;4.30;99.90;;;;;;4867770;29;20032;-90
2021/12/11 12:11:33;;;;;;;57.33;25.98;;;4.30;99.90;;;;;;4867782;29;20025;-90
2021/12/11 12:14:07;;;;;;;54.13;23.75;;;4.30;99.90;;;;;;4871706;29;20034;-92
2021/12/11 12:16:36;;;;;;;49.08;25.13;;;4.30;99.90;;;;;;4886291;29;20075;-89
2021/12/11 12:19:03;;;;;;;56.10;24.92;;;4.30;99.90;;;;;;4868541;29;20041;-90
2021/12/11 12:21:31;;;;;;;47.97;25.48;;;4.30;99.90;;;;;;4885442;29;20025;-88
2021/12/11 12:23:56;;;;;;;46.28;23.70;;;4.40;99.90;;;;;;4878446;29;20025;-89
2021/12/11 12:26:26;;;;;;;43.15;23.38;;;4.40;99.90;;;;;;4866814;29;20457;-90
2021/12/11 12:28:54;;;;;;;55.08;27.58;;;4.40;99.90;;;;;;4867847;29;20067;-91
2021/12/11 12:31:29;;;;;;;50.03;26.17;;;4.30;99.90;;;;;;4880964;29;20081;-90
2021/12/11 12:33:56;;;;;;;48.72;23.92;;;4.30;99.90;;;;;;4879044;29;20045;-90
2021/12/11 12:36:22;;;;;;;48.65;25.55;;;4.30;99.90;;;;;;4867194;29;20013;-90
2021/12/11 12:38:48;;;;;;;59.30;25.20;;;4.30;99.90;;;;;;4867512;29;20037;-92
2021/12/11 12:41:38;;;;;;;45.97;23.70;;;4.30;99.90;;;;;;4867723;29;20439;-88
2021/12/11 12:44:17;;;;;;;41.00;22.15;;;4.30;99.90;;;;;;4867109;29;20025;-89
2021/12/11 12:46:56;;;;;;;46.03;22.33;;;4.30;99.90;;;;;;4867127;29;20121;-90
2021/12/11 12:49:25;;;;;;;41.95;21.08;;;4.40;99.90;;;;;;4867631;29;20036;-91
2021/12/11 12:51:51;;;;;;;39.03;20.65;;;4.40;99.90;;;;;;4870816;29;20033;-89
2021/12/11 12:54:22;;;;;;;41.20;21.27;;;4.40;99.90;;;;;;4870228;29;20033;-89
2021/12/11 12:57:01;;;;;;;34.50;18.67;;;4.40;99.90;;;;;;4874847;29;20108;-91
2021/12/11 12:59:31;;;;;;;33.63;17.05;;;4.50;99.90;;;;;;4864688;29;20036;-91
2021/12/11 13:02:29;;;;;;;36.42;16.90;;;4.60;99.90;;;;;;4868092;29;20677;-92
2021/12/11 13:05:10;;;;;;;37.78;18.38;;;4.60;99.90;;;;;;4857072;29;20658;-91
2021/12/11 13:07:36;;;;;;;34.78;18.25;;;4.60;99.90;;;;;;4875821;29;20025;-91
2021/12/11 13:10:08;;;;;;;36.05;17.75;;;4.70;99.90;;;;;;4894250;29;20037;-90
2021/12/11 13:12:42;;;;;;;35.38;19.42;;;4.60;99.90;;;;;;4874059;29;20093;-86
2021/12/11 13:15:27;;;;;;;34.00;17.30;;;4.70;99.90;;;;;;4876411;29;20025;-88
2021/12/11 13:17:55;;;;;;;33.65;17.73;;;4.70;99.90;;;;;;4883042;29;20036;-88